createdAt,value
2019-01-05T00:01:45.858Z,94.09
2019-01-05T00:04:30.991Z,93.59
2019-01-05T00:07:10.223Z,92.54
2019-01-05T00:10:03.347Z,93.00
2019-01-05T00:12:49.680Z,93.07
2019-01-05T00:15:43.560Z,92.72
2019-01-05T00:18:34.391Z,92.91
2019-01-05T00:21:31.301Z,92.93
2019-01-05T00:24:21.930Z,93.16
2019-01-05T00:27:08.111Z,93.31
2019-01-05T00:29:58.883Z,93.88
2019-01-05T00:32:59.056Z,93.79
2019-01-05T00:36:13.146Z,93.54
2019-01-05T00:39:08.895Z,93.31
2019-01-05T00:42:01.728Z,93.64
2019-01-05T00:44:49.666Z,93.84
2019-01-05T00:47:35.750Z,93.89
2019-01-05T00:50:29.814Z,93.59
2019-01-05T00:53:17.727Z,93.79
2019-01-05T00:56:09.298Z,93.68
2019-01-05T00:58:59.994Z,93.42
2019-01-05T01:01:50.504Z,93.88
2019-01-05T01:04:38.043Z,93.70
2019-01-05T01:07:25.218Z,93.95
2019-01-05T01:10:03.396Z,93.58
2019-01-05T01:12:49.482Z,93.45
2019-01-05T01:15:35.461Z,93.72
2019-01-05T01:18:37.988Z,94.03
2019-01-05T01:21:23.862Z,94.14
2019-01-05T01:24:14.844Z,94.09
2019-01-05T01:27:08.148Z,93.58
2019-01-05T01:29:58.486Z,93.14
2019-01-05T01:32:45.288Z,93.70
2019-01-05T01:35:38.189Z,93.01
2019-01-05T01:38:53.518Z,93.39
2019-01-05T01:41:57.509Z,94.40
2019-01-05T01:45:03.014Z,94.61
2019-01-05T01:47:58.317Z,94.34
2019-01-05T01:50:51.426Z,93.41
2019-01-05T01:53:37.925Z,93.52
2019-01-05T01:56:48.391Z,93.30
2019-01-05T02:00:06.129Z,93.67
2019-01-05T02:02:55.445Z,93.39
2019-01-05T02:05:42.747Z,93.73
2019-01-05T02:08:32.710Z,93.13
2019-01-05T02:11:30.012Z,92.51
2019-01-05T02:14:18.437Z,92.69
2019-01-05T02:17:32.003Z,92.67
2019-01-05T02:20:34.065Z,93.33
2019-01-05T02:24:21.482Z,93.09
2019-01-05T02:27:57.729Z,92.52
2019-01-05T02:31:28.281Z,92.69
2019-01-05T02:34:53.247Z,93.11
2019-01-05T02:38:17.331Z,93.24
2019-01-05T02:42:06.774Z,93.60
2019-01-05T02:46:08.567Z,92.84
2019-01-05T02:50:11.426Z,93.92
2019-01-05T02:53:56.028Z,93.73
2019-01-05T02:57:55.652Z,94.32
2019-01-05T03:02:04.536Z,93.61
2019-01-05T03:05:45.696Z,94.29
2019-01-05T03:09:45.836Z,94.48
2019-01-05T03:13:23.256Z,94.79
2019-01-05T03:17:29.452Z,94.91
2019-01-05T03:21:16.345Z,94.76
2019-01-05T03:24:55.982Z,93.71
2019-01-05T03:28:57.770Z,94.12
2019-01-05T03:32:45.357Z,95.02
2019-01-05T03:36:28.486Z,94.59
2019-01-05T03:40:23.346Z,94.18
2019-01-05T03:44:08.485Z,95.23
2019-01-05T03:48:01.513Z,95.23
2019-01-05T03:51:46.741Z,94.69
2019-01-05T03:55:36.403Z,94.49
2019-01-05T03:59:16.925Z,94.21
2019-01-05T04:02:48.735Z,94.76
2019-01-05T04:06:35.565Z,94.40
2019-01-05T04:10:30.869Z,94.10
2019-01-05T04:15:03.148Z,94.48
2019-01-05T04:18:55.611Z,94.26
2019-01-05T04:22:49.339Z,94.26
2019-01-05T04:26:36.005Z,94.69
2019-01-05T04:30:43.785Z,94.12
2019-01-05T04:34:31.947Z,94.84
2019-01-05T04:38:09.852Z,95.16
2019-01-05T04:41:58.015Z,95.76
2019-01-05T04:45:33.737Z,95.36
2019-01-05T04:49:31.941Z,95.40
2019-01-05T04:53:15.776Z,95.38
2019-01-05T04:57:25.618Z,95.14
2019-01-05T05:01:25.569Z,95.94
2019-01-05T05:05:22.289Z,96.22
2019-01-05T05:09:49.638Z,96.25
2019-01-05T05:13:32.403Z,96.15
2019-01-05T05:17:06.664Z,96.96
2019-01-05T05:20:40.898Z,97.30
2019-01-05T05:24:12.484Z,97.08
2019-01-05T05:28:02.480Z,96.89
2019-01-05T05:32:00.012Z,95.89
2019-01-05T05:35:50.902Z,96.26
2019-01-05T05:39:56.830Z,96.74
2019-01-05T05:43:46.204Z,96.68
2019-01-05T05:47:38.629Z,96.75
2019-01-05T05:51:26.399Z,96.88
2019-01-05T05:55:05.019Z,96.85
2019-01-05T05:58:39.933Z,97.01
2019-01-05T06:02:05.809Z,97.23
2019-01-05T06:05:39.518Z,96.63
2019-01-05T06:09:29.887Z,96.42
2019-01-05T06:13:27.210Z,96.01
2019-01-05T06:17:37.763Z,96.73
2019-01-05T06:21:23.093Z,96.64
2019-01-05T06:24:47.818Z,96.54
2019-01-05T06:28:49.004Z,96.38
2019-01-05T06:32:20.159Z,96.39
2019-01-05T06:36:04.729Z,96.51
2019-01-05T06:39:45.528Z,97.06
2019-01-05T06:43:17.520Z,97.31
2019-01-05T06:47:18.698Z,97.24
2019-01-05T06:51:11.450Z,97.04
2019-01-05T06:54:51.586Z,97.09
2019-01-05T06:58:57.959Z,97.13
2019-01-05T07:02:41.180Z,97.44
2019-01-05T07:06:15.114Z,97.59
2019-01-05T07:09:45.874Z,97.23
2019-01-05T07:13:17.056Z,96.31
2019-01-05T07:16:57.778Z,95.96
2019-01-05T07:20:53.224Z,96.37
2019-01-05T07:24:50.823Z,96.09
2019-01-05T07:28:31.058Z,96.31
2019-01-05T07:32:24.344Z,96.41
2019-01-05T07:36:16.772Z,96.42
2019-01-05T07:40:07.125Z,96.63
2019-01-05T07:43:39.332Z,96.64
2019-01-05T07:47:27.801Z,96.31
2019-01-05T07:51:15.802Z,96.23
2019-01-05T07:55:14.052Z,95.41
2019-01-05T07:59:21.706Z,95.20
2019-01-05T08:03:05.446Z,95.88
2019-01-05T08:06:51.380Z,95.28
2019-01-05T08:10:53.015Z,95.13
2019-01-05T08:14:40.293Z,95.23
2019-01-05T08:18:31.819Z,95.42
2019-01-05T08:22:47.137Z,95.58
2019-01-05T08:26:47.953Z,95.88
2019-01-05T08:31:02.010Z,96.18
2019-01-05T08:34:58.783Z,95.72
2019-01-05T08:39:07.132Z,95.32
2019-01-05T08:43:03.215Z,95.68
2019-01-05T08:47:11.154Z,95.17
2019-01-05T08:50:45.699Z,95.14
2019-01-05T08:54:31.229Z,95.31
2019-01-05T08:58:17.142Z,95.64
2019-01-05T09:02:29.974Z,96.16
2019-01-05T09:06:13.157Z,95.01
2019-01-05T09:10:15.020Z,94.76
2019-01-05T09:14:17.645Z,95.11
2019-01-05T09:17:34.274Z,93.81
2019-01-05T09:21:03.384Z,94.01
2019-01-05T09:24:59.310Z,94.31
2019-01-05T09:29:16.426Z,94.96
2019-01-05T09:32:56.889Z,94.47
2019-01-05T09:36:42.567Z,94.72
2019-01-05T09:40:17.039Z,94.99
2019-01-05T09:44:22.218Z,95.63
2019-01-05T09:48:34.675Z,95.93
2019-01-05T09:52:51.163Z,95.77
2019-01-05T09:56:30.827Z,95.47
2019-01-05T10:00:15.997Z,95.77
2019-01-05T10:03:45.761Z,95.95
2019-01-05T10:07:32.341Z,96.43
2019-01-05T10:11:27.149Z,96.65
2019-01-05T10:15:14.573Z,96.03
2019-01-05T10:19:15.569Z,95.09
2019-01-05T10:23:35.521Z,94.60
2019-01-05T10:27:20.377Z,95.04
2019-01-05T10:31:02.283Z,95.24
2019-01-05T10:34:48.379Z,94.72
2019-01-05T10:38:39.601Z,94.92
2019-01-05T10:42:31.924Z,94.42
2019-01-05T10:46:00.719Z,94.28
2019-01-05T10:49:50.879Z,94.29
2019-01-05T10:53:25.352Z,94.22
2019-01-05T10:57:15.857Z,94.32
2019-01-05T11:01:14.890Z,93.93
2019-01-05T11:05:02.801Z,93.37
2019-01-05T11:09:25.192Z,93.65
2019-01-05T11:13:07.838Z,93.22
2019-01-05T11:17:18.652Z,93.16
2019-01-05T11:21:05.732Z,93.03
2019-01-05T11:24:51.360Z,93.26
2019-01-05T11:28:50.310Z,92.79
2019-01-05T11:32:38.214Z,92.77
2019-01-05T11:36:31.694Z,93.02
2019-01-05T11:40:18.406Z,92.66
2019-01-05T11:44:15.980Z,92.06
2019-01-05T11:48:10.605Z,91.57
2019-01-05T11:51:48.730Z,92.07
2019-01-05T11:55:28.857Z,91.73
2019-01-05T11:59:10.453Z,91.67
2019-01-05T12:03:24.456Z,91.61
2019-01-05T12:07:34.637Z,90.65
2019-01-05T12:11:29.660Z,90.16
2019-01-05T12:15:13.471Z,88.19
2019-01-05T12:18:51.888Z,87.85
2019-01-05T12:22:49.507Z,87.46
2019-01-05T12:26:30.511Z,88.41
2019-01-05T12:30:21.219Z,88.51
2019-01-05T12:34:41.217Z,88.01
2019-01-05T12:38:33.140Z,87.21
2019-01-05T12:42:19.282Z,86.59
2019-01-05T12:46:16.298Z,86.52
2019-01-05T12:50:03.909Z,86.09
2019-01-05T12:53:44.250Z,86.45
2019-01-05T12:57:30.837Z,86.42
2019-01-05T13:01:44.606Z,87.80
2019-01-05T13:05:47.530Z,88.21
2019-01-05T13:09:44.346Z,89.07
2019-01-05T13:13:35.219Z,89.84
2019-01-05T13:17:37.337Z,89.74
2019-01-05T13:21:25.712Z,89.93
2019-01-05T13:25:03.064Z,91.33
2019-01-05T13:28:50.007Z,91.85
2019-01-05T13:32:57.099Z,91.13
2019-01-05T13:37:01.212Z,90.24
2019-01-05T13:41:04.922Z,89.38
2019-01-05T13:45:25.488Z,89.20
2019-01-05T13:49:19.281Z,87.85
2019-01-05T13:52:57.053Z,87.95
2019-01-05T13:56:02.414Z,88.07
2019-01-05T13:59:02.182Z,87.66
2019-01-05T14:01:52.136Z,87.90
2019-01-05T14:04:39.533Z,88.11
2019-01-05T14:07:32.659Z,87.84
2019-01-05T14:10:11.766Z,88.34
2019-01-05T14:13:08.191Z,89.37
2019-01-05T14:15:55.575Z,89.06
2019-01-05T14:18:58.178Z,88.55
2019-01-05T14:21:44.303Z,88.32
2019-01-05T14:24:30.348Z,88.64
2019-01-05T14:27:18.751Z,88.43
2019-01-05T14:30:04.693Z,87.95
2019-01-05T14:32:58.065Z,88.42
2019-01-05T14:35:45.437Z,88.52
2019-01-05T14:38:28.771Z,88.09
2019-01-05T14:41:25.718Z,87.86
2019-01-05T14:44:13.085Z,88.63
2019-01-05T14:47:03.459Z,89.21
2019-01-05T14:49:53.443Z,89.04
2019-01-05T14:52:48.002Z,89.27
2019-01-05T14:55:33.813Z,89.44
2019-01-05T14:58:19.390Z,88.83
2019-01-05T15:00:58.591Z,88.71
2019-01-05T15:03:44.440Z,89.13
2019-01-05T15:06:40.964Z,89.35
2019-01-05T15:09:43.292Z,88.88
2019-01-05T15:12:22.864Z,89.22
2019-01-05T15:15:13.001Z,89.73
2019-01-05T15:18:09.468Z,90.11
2019-01-05T15:20:56.837Z,90.65
2019-01-05T15:23:49.953Z,90.96
2019-01-05T15:26:43.119Z,91.46
2019-01-05T15:29:48.422Z,91.11
2019-01-05T15:35:48.385Z,90.36
2019-01-05T15:38:42.934Z,90.83
2019-01-05T15:41:33.365Z,90.34
2019-01-05T15:44:20.753Z,89.72
2019-01-05T15:47:06.183Z,89.83
2019-01-05T15:50:05.909Z,89.85
2019-01-05T15:53:11.405Z,90.14
2019-01-05T15:56:10.673Z,89.79
2019-01-05T15:58:56.517Z,89.97
2019-01-05T16:01:55.575Z,90.23
2019-01-05T16:04:42.727Z,88.90
2019-01-05T16:07:32.920Z,89.34
2019-01-05T16:10:18.760Z,89.10
2019-01-05T16:13:04.360Z,89.14
2019-01-05T16:15:50.191Z,88.83
2019-01-05T16:18:55.463Z,89.15
2019-01-05T16:21:41.477Z,89.80
2019-01-05T16:24:37.700Z,89.60
2019-01-05T16:27:29.548Z,89.51
2019-01-05T16:30:15.226Z,89.04
2019-01-05T16:32:56.107Z,89.05
2019-01-05T16:35:46.385Z,88.68
2019-01-05T16:38:32.301Z,88.36
2019-01-05T16:41:13.707Z,88.58
2019-01-05T16:43:57.892Z,88.18
2019-01-05T16:47:00.165Z,87.86
2019-01-05T16:49:53.669Z,88.68
2019-01-05T16:52:41.886Z,88.85
2019-01-05T16:55:27.785Z,88.24
2019-01-05T16:58:15.168Z,88.30
2019-01-05T17:01:02.715Z,88.77
2019-01-05T17:03:48.628Z,88.70
2019-01-05T17:06:32.343Z,89.07
2019-01-05T17:09:25.412Z,88.73
2019-01-05T17:12:16.275Z,88.56
2019-01-05T17:15:09.695Z,89.00
2019-01-05T17:17:55.540Z,89.34
2019-01-05T17:20:33.766Z,90.08
2019-01-05T17:23:26.980Z,90.88
2019-01-05T17:26:29.212Z,90.67
2019-01-05T17:29:22.367Z,90.65
2019-01-05T17:32:03.053Z,90.57
2019-01-05T17:34:58.981Z,90.35
2019-01-05T17:37:46.384Z,89.98
2019-01-05T17:40:32.276Z,89.08
2019-01-05T17:43:29.762Z,89.63
2019-01-05T17:46:32.524Z,89.34
2019-01-05T17:49:18.190Z,89.22
2019-01-05T17:52:23.572Z,88.87
2019-01-05T17:55:09.409Z,88.89
2019-01-05T17:57:55.339Z,89.46
2019-01-05T18:00:41.451Z,89.69
2019-01-05T18:03:30.959Z,89.43
2019-01-05T18:06:21.179Z,89.62
2019-01-05T18:09:14.272Z,89.78
2019-01-05T18:11:58.027Z,89.56
2019-01-05T18:14:43.566Z,89.42
2019-01-05T18:17:33.598Z,89.93
2019-01-05T18:20:20.951Z,89.78
2019-01-05T18:23:06.281Z,90.26
2019-01-05T18:25:56.281Z,89.77
2019-01-05T18:28:52.781Z,90.59
2019-01-05T18:31:52.875Z,90.41
2019-01-05T18:34:49.375Z,90.37
2019-01-05T18:37:35.266Z,90.88
2019-01-05T18:40:21.245Z,91.39
2019-01-05T18:43:07.566Z,91.34
2019-01-05T18:45:53.473Z,91.51
2019-01-05T18:48:46.851Z,91.82
2019-01-05T18:51:39.396Z,91.53
2019-01-05T18:54:26.151Z,91.21
2019-01-05T18:57:22.353Z,91.77
2019-01-05T19:00:08.127Z,90.85
2019-01-05T19:02:53.750Z,90.82
2019-01-05T19:05:41.156Z,90.49
2019-01-05T19:08:22.729Z,89.93
2019-01-05T19:11:08.399Z,91.18
2019-01-05T19:13:54.495Z,91.60
2019-01-05T19:16:40.102Z,92.17
2019-01-05T19:19:39.632Z,92.43
2019-01-05T19:22:29.830Z,92.54
2019-01-05T19:25:29.291Z,93.21
2019-01-05T19:28:15.085Z,92.22
2019-01-05T19:31:02.481Z,92.08
2019-01-05T19:33:48.269Z,92.52
2019-01-05T19:36:53.845Z,92.65
2019-01-05T19:39:41.254Z,92.72
2019-01-05T19:42:27.032Z,92.68
2019-01-05T19:45:17.395Z,92.65
2019-01-05T19:48:22.935Z,92.36
2019-01-05T19:51:10.346Z,92.54
2019-01-05T19:53:56.634Z,92.26
2019-01-05T19:56:46.892Z,91.97
2019-01-05T19:59:28.600Z,91.34
2019-01-05T20:02:09.281Z,90.87
2019-01-05T20:04:56.963Z,90.13
2019-01-05T20:07:47.086Z,90.02
2019-01-05T20:10:49.181Z,90.79
2019-01-05T20:13:48.185Z,91.07
2019-01-05T20:16:47.613Z,91.42
2019-01-05T20:19:33.381Z,91.24
2019-01-05T20:22:20.775Z,90.96
2019-01-05T20:25:06.593Z,90.25
2019-01-05T20:27:56.989Z,90.47
2019-01-05T20:30:50.223Z,90.67
2019-01-05T20:33:44.798Z,90.96
2019-01-05T20:36:38.311Z,91.09
2019-01-05T20:39:27.031Z,91.05
2019-01-05T20:42:14.454Z,90.67
2019-01-05T20:45:00.395Z,91.21
2019-01-05T20:48:02.899Z,91.27
2019-01-05T20:50:53.048Z,91.67
2019-01-05T20:53:40.485Z,91.06
2019-01-05T20:56:45.560Z,91.03
2019-01-05T20:59:29.020Z,91.44
2019-01-05T21:02:16.445Z,91.75
2019-01-05T21:05:19.030Z,91.76
2019-01-05T21:08:04.820Z,92.35
2019-01-05T21:11:01.352Z,92.43
2019-01-05T21:14:03.688Z,92.41
2019-01-05T21:17:02.952Z,92.12
2019-01-05T21:19:56.275Z,91.42
2019-01-05T21:22:52.711Z,91.45
2019-01-05T21:25:40.630Z,90.94
2019-01-05T21:28:26.258Z,90.43
2019-01-05T21:31:25.947Z,89.97
2019-01-05T21:34:13.491Z,88.97
2019-01-05T21:37:06.996Z,88.76
2019-01-05T21:39:57.562Z,88.19
2019-01-05T21:42:48.207Z,88.16
2019-01-05T21:45:38.477Z,88.32
2019-01-05T21:48:29.020Z,88.16
2019-01-05T21:51:28.453Z,88.68
2019-01-05T21:54:23.174Z,88.42
2019-01-05T21:57:10.726Z,87.97
2019-01-05T22:00:16.055Z,88.08
2019-01-05T22:03:01.629Z,88.04
2019-01-05T22:05:51.931Z,88.03
2019-01-05T22:08:48.162Z,88.24
2019-01-05T22:11:33.960Z,88.15
2019-01-05T22:14:15.519Z,89.17
2019-01-05T22:17:14.582Z,89.30
2019-01-05T22:20:00.366Z,89.73
2019-01-05T22:22:37.855Z,89.85
2019-01-05T22:25:24.035Z,89.76
2019-01-05T22:28:10.002Z,89.62
2019-01-05T22:30:55.523Z,89.31
2019-01-05T22:33:41.619Z,88.79
2019-01-05T22:36:25.923Z,88.77
2019-01-05T22:39:14.901Z,88.87
2019-01-05T22:42:05.263Z,88.61
2019-01-05T22:44:55.679Z,88.23
2019-01-05T22:47:41.535Z,88.79
2019-01-05T22:50:27.568Z,89.19
2019-01-05T22:53:21.189Z,89.19
2019-01-05T22:56:14.057Z,89.34
2019-01-05T22:58:59.669Z,90.13
2019-01-05T23:02:05.167Z,90.39
2019-01-05T23:04:55.072Z,90.22
2019-01-05T23:08:00.351Z,90.46
2019-01-05T23:10:49.793Z,90.68
2019-01-05T23:13:37.928Z,90.64
2019-01-05T23:16:25.511Z,90.85
2019-01-05T23:19:15.965Z,90.77
2019-01-05T23:22:01.694Z,90.82
2019-01-05T23:25:03.627Z,90.51
2019-01-05T23:27:51.018Z,89.73
2019-01-05T23:30:38.772Z,89.17
2019-01-05T23:33:36.436Z,88.87
2019-01-05T23:36:24.283Z,89.14
2019-01-05T23:39:15.660Z,88.51
2019-01-05T23:42:09.552Z,88.48
2019-01-05T23:44:59.954Z,87.99
2019-01-05T23:48:02.209Z,87.77
2019-01-05T23:50:47.998Z,87.44
2019-01-05T23:53:34.172Z,87.33
2019-01-05T23:56:34.582Z,86.75
2019-01-05T23:59:41.808Z,87.09
